createdAt,value
2022-09-25T00:02:58.244Z,14.00
2022-09-25T00:06:06.884Z,14.00
2022-09-25T00:09:10.159Z,13.90
2022-09-25T00:12:12.286Z,13.90
2022-09-25T00:15:15.139Z,13.80
2022-09-25T00:18:37.918Z,13.80
2022-09-25T00:21:42.647Z,13.80
2022-09-25T00:24:44.917Z,13.80
2022-09-25T00:27:48.439Z,13.90
2022-09-25T00:30:50.320Z,13.90
2022-09-25T00:33:52.814Z,13.90
2022-09-25T00:36:54.678Z,13.90
2022-09-25T00:39:57.046Z,13.80
2022-09-25T00:42:58.714Z,13.80
2022-09-25T00:46:02.801Z,13.90
2022-09-25T00:49:11.782Z,13.80
2022-09-25T00:52:14.289Z,13.80
2022-09-25T00:55:16.986Z,13.80
2022-09-25T00:58:23.829Z,13.80
2022-09-25T01:01:25.666Z,13.70
2022-09-25T01:04:32.745Z,13.80
2022-09-25T01:07:38.395Z,13.70
2022-09-25T01:10:41.978Z,13.70
2022-09-25T01:13:44.475Z,13.80
2022-09-25T01:17:03.751Z,13.80
2022-09-25T01:20:28.719Z,13.80
2022-09-25T01:23:52.495Z,13.80
2022-09-25T01:26:57.349Z,13.80
2022-09-25T01:30:18.208Z,13.70
2022-09-25T01:33:35.328Z,13.80
2022-09-25T01:36:45.942Z,13.80
2022-09-25T01:39:56.686Z,13.80
2022-09-25T01:43:09.044Z,13.80
2022-09-25T01:46:21.899Z,13.80
2022-09-25T01:49:38.641Z,13.80
2022-09-25T01:52:52.280Z,13.80
2022-09-25T01:55:59.790Z,13.80
2022-09-25T02:02:26.909Z,13.80
2022-09-25T02:05:47.122Z,13.80
2022-09-25T02:09:00.423Z,13.80
2022-09-25T02:12:18.838Z,13.80
2022-09-25T02:15:31.012Z,13.70
2022-09-25T02:25:13.972Z,13.60
2022-09-25T02:28:15.869Z,13.70
2022-09-25T02:31:18.147Z,13.70
2022-09-25T02:34:21.521Z,13.70
2022-09-25T02:37:23.953Z,13.60
2022-09-25T02:40:47.660Z,13.60
2022-09-25T02:44:16.534Z,13.60
2022-09-25T02:47:45.128Z,13.50
2022-09-25T02:50:54.700Z,13.60
2022-09-25T02:54:09.230Z,13.60
2022-09-25T02:57:57.271Z,13.50
2022-09-25T03:01:01.786Z,13.50
2022-09-25T03:04:06.046Z,13.50
2022-09-25T03:07:07.980Z,13.50
2022-09-25T03:10:10.148Z,13.50
2022-09-25T03:13:32.047Z,13.50
2022-09-25T03:16:52.766Z,13.50
2022-09-25T03:19:54.808Z,13.40
2022-09-25T03:22:56.618Z,13.40
2022-09-25T03:25:59.157Z,13.50
2022-09-25T03:29:02.189Z,13.50
2022-09-25T03:32:04.669Z,13.40
2022-09-25T03:35:06.705Z,13.40
2022-09-25T03:38:10.311Z,13.50
2022-09-25T03:41:15.283Z,13.40
2022-09-25T03:44:17.208Z,13.40
2022-09-25T03:47:18.866Z,13.40
2022-09-25T03:50:20.755Z,13.40
2022-09-25T03:53:24.504Z,13.30
2022-09-25T03:56:29.667Z,13.40
2022-09-25T03:59:31.709Z,13.30
2022-09-25T04:02:33.797Z,13.30
2022-09-25T04:05:36.139Z,13.20
2022-09-25T04:08:38.086Z,13.20
2022-09-25T04:11:39.804Z,13.30
2022-09-25T04:14:42.173Z,13.20
2022-09-25T04:17:43.837Z,13.20
2022-09-25T04:20:46.317Z,13.20
2022-09-25T04:24:08.475Z,13.20
2022-09-25T04:27:10.651Z,13.20
2022-09-25T04:30:12.959Z,13.20
2022-09-25T04:33:34.289Z,13.20
2022-09-25T04:36:35.940Z,13.20
2022-09-25T04:39:38.310Z,13.20
2022-09-25T04:42:41.261Z,13.20
2022-09-25T04:45:43.438Z,13.20
2022-09-25T04:48:46.476Z,13.10
2022-09-25T04:51:48.295Z,13.00
2022-09-25T04:54:50.040Z,13.00
2022-09-25T04:57:58.832Z,13.10
2022-09-25T05:01:06.216Z,13.10
2022-09-25T05:04:09.038Z,13.00
2022-09-25T05:07:10.870Z,13.00
2022-09-25T05:10:12.642Z,13.00
2022-09-25T05:13:14.655Z,13.00
2022-09-25T05:16:16.663Z,13.00
2022-09-25T05:19:18.493Z,13.00
2022-09-25T05:22:20.201Z,13.00
2022-09-25T05:25:23.365Z,13.00
2022-09-25T05:28:26.386Z,12.90
2022-09-25T05:31:29.366Z,13.00
2022-09-25T05:34:31.248Z,13.00
2022-09-25T05:37:33.803Z,12.90
2022-09-25T05:40:35.543Z,12.90
2022-09-25T05:43:43.245Z,12.90
2022-09-25T05:46:45.214Z,12.90
2022-09-25T05:49:46.989Z,12.80
2022-09-25T05:52:56.271Z,12.80
2022-09-25T05:56:00.556Z,12.80
2022-09-25T05:59:02.256Z,12.80
2022-09-25T06:02:04.137Z,12.90
2022-09-25T06:05:05.973Z,12.80
2022-09-25T06:08:08.472Z,12.80
2022-09-25T06:11:11.485Z,12.80
2022-09-25T06:14:16.664Z,12.80
2022-09-25T06:17:18.459Z,12.80
2022-09-25T06:20:21.929Z,12.90
2022-09-25T06:23:23.486Z,12.80
2022-09-25T06:26:25.879Z,12.80
2022-09-25T06:29:27.566Z,12.80
2022-09-25T06:32:29.265Z,12.80
2022-09-25T06:35:31.214Z,12.80
2022-09-25T06:38:36.106Z,12.80
2022-09-25T06:41:38.118Z,13.00
2022-09-25T06:44:39.980Z,13.00
2022-09-25T06:47:41.915Z,13.00
2022-09-25T06:50:56.015Z,13.00
2022-09-25T06:53:58.623Z,13.10
2022-09-25T06:57:00.480Z,13.20
2022-09-25T07:00:02.430Z,13.20
2022-09-25T07:03:22.974Z,13.20
2022-09-25T07:06:27.668Z,13.20
2022-09-25T07:09:29.403Z,13.20
2022-09-25T07:12:32.267Z,13.30
2022-09-25T07:15:35.297Z,13.30
2022-09-25T07:18:37.013Z,13.30
2022-09-25T07:21:39.183Z,13.30
2022-09-25T07:24:42.384Z,13.40
2022-09-25T07:27:44.139Z,13.50
2022-09-25T07:30:46.826Z,13.50
2022-09-25T07:33:49.467Z,13.60
2022-09-25T07:36:52.983Z,13.70
2022-09-25T07:39:54.882Z,13.80
2022-09-25T07:43:00.251Z,13.80
2022-09-25T07:46:02.015Z,13.90
2022-09-25T07:49:03.993Z,13.90
2022-09-25T07:52:06.630Z,13.90
2022-09-25T07:55:09.061Z,14.00
2022-09-25T07:58:11.824Z,14.00
2022-09-25T08:01:13.770Z,14.10
2022-09-25T08:04:18.787Z,14.10
2022-09-25T08:07:20.635Z,14.20
2022-09-25T08:10:23.116Z,14.20
2022-09-25T08:13:25.609Z,14.30
2022-09-25T08:16:27.429Z,14.40
2022-09-25T08:19:29.830Z,14.40
2022-09-25T08:22:31.497Z,14.50
2022-09-25T08:25:34.594Z,14.60
2022-09-25T08:28:36.710Z,14.60
2022-09-25T08:31:38.585Z,14.60
2022-09-25T08:34:42.586Z,14.70
2022-09-25T08:37:48.966Z,14.70
2022-09-25T08:40:56.648Z,14.80
2022-09-25T08:44:25.931Z,14.90
2022-09-25T08:48:07.122Z,14.80
2022-09-25T08:51:10.827Z,14.90
2022-09-25T08:54:19.028Z,14.90
2022-09-25T08:57:37.226Z,14.90
2022-09-25T09:00:38.935Z,15.00
2022-09-25T09:04:09.665Z,15.00
2022-09-25T09:07:32.765Z,15.00
2022-09-25T09:10:37.840Z,15.00
2022-09-25T09:13:52.174Z,15.00
2022-09-25T09:17:03.660Z,15.00
2022-09-25T09:20:19.688Z,15.10
2022-09-25T09:23:24.372Z,15.20
2022-09-25T09:27:04.270Z,15.30
2022-09-25T09:30:31.329Z,15.30
2022-09-25T09:33:58.061Z,15.30
2022-09-25T09:37:18.290Z,15.30
2022-09-25T09:40:26.410Z,15.20
2022-09-25T09:43:37.854Z,15.20
2022-09-25T09:47:26.390Z,15.30
2022-09-25T09:50:52.938Z,15.30
2022-09-25T09:54:01.231Z,15.40
2022-09-25T09:57:23.282Z,15.50
2022-09-25T10:00:25.187Z,15.60
2022-09-25T10:03:36.940Z,15.70
2022-09-25T10:06:44.124Z,15.70
2022-09-25T10:09:49.510Z,15.90
2022-09-25T10:12:54.009Z,15.80
2022-09-25T10:16:05.221Z,15.80
2022-09-25T10:19:28.256Z,15.80
2022-09-25T10:22:39.161Z,15.80
2022-09-25T10:25:41.099Z,15.80
2022-09-25T10:28:43.963Z,15.80
2022-09-25T10:31:46.559Z,15.90
2022-09-25T10:34:53.131Z,15.90
2022-09-25T10:37:58.818Z,15.90
2022-09-25T10:41:06.076Z,15.80
2022-09-25T10:44:35.441Z,15.80
2022-09-25T10:47:55.979Z,15.80
2022-09-25T10:51:09.562Z,15.80
2022-09-25T10:54:15.270Z,15.90
2022-09-25T10:57:38.459Z,15.90
2022-09-25T11:00:54.624Z,16.00
2022-09-25T11:03:57.477Z,16.10
2022-09-25T11:07:04.896Z,16.20
2022-09-25T11:10:19.731Z,16.20
2022-09-25T11:13:30.440Z,16.20
2022-09-25T11:16:56.136Z,16.20
2022-09-25T11:20:16.534Z,16.20
2022-09-25T11:23:34.672Z,16.10
2022-09-25T11:26:47.005Z,16.20
2022-09-25T11:30:17.759Z,16.20
2022-09-25T11:33:29.543Z,16.20
2022-09-25T11:36:44.028Z,16.20
2022-09-25T11:40:27.759Z,16.20
2022-09-25T11:43:36.391Z,16.10
2022-09-25T11:46:53.328Z,16.10
2022-09-25T11:49:58.383Z,16.00
2022-09-25T11:53:19.320Z,16.10
2022-09-25T11:56:32.847Z,16.00
2022-09-25T12:00:08.783Z,16.00
2022-09-25T12:03:29.751Z,16.00
2022-09-25T12:06:54.036Z,16.10
2022-09-25T12:09:55.854Z,16.10
2022-09-25T12:13:15.760Z,16.00
2022-09-25T12:16:20.467Z,16.10
2022-09-25T12:19:31.399Z,16.10
2022-09-25T12:22:51.773Z,16.40
2022-09-25T12:26:27.892Z,16.50
2022-09-25T12:30:00.853Z,16.50
2022-09-25T12:33:32.556Z,16.50
2022-09-25T12:36:45.688Z,16.50
2022-09-25T12:39:53.924Z,16.40
2022-09-25T12:43:14.817Z,16.40
2022-09-25T12:46:27.809Z,16.30
2022-09-25T12:49:59.145Z,16.40
2022-09-25T12:53:42.563Z,16.40
2022-09-25T12:56:51.204Z,16.40
2022-09-25T12:59:55.892Z,16.40
2022-09-25T13:03:04.433Z,16.40
2022-09-25T13:06:10.317Z,16.40
2022-09-25T13:09:43.508Z,16.40
2022-09-25T13:12:46.375Z,16.50
2022-09-25T13:15:56.838Z,16.50
2022-09-25T13:19:35.231Z,16.50
2022-09-25T13:22:41.529Z,16.40
2022-09-25T13:25:47.696Z,16.50
2022-09-25T13:29:03.115Z,16.50
2022-09-25T13:32:16.866Z,16.50
2022-09-25T13:35:20.943Z,16.50
2022-09-25T13:38:41.309Z,16.40
2022-09-25T13:41:53.463Z,16.40
2022-09-25T13:45:08.244Z,16.40
2022-09-25T13:48:33.153Z,16.40
2022-09-25T13:51:36.961Z,16.40
2022-09-25T13:54:38.678Z,16.40
2022-09-25T13:57:58.895Z,16.40
2022-09-25T14:01:02.975Z,16.30
2022-09-25T14:04:40.494Z,16.30
2022-09-25T14:07:43.084Z,16.30
2022-09-25T14:10:50.574Z,16.20
2022-09-25T14:13:56.682Z,16.20
2022-09-25T14:16:59.744Z,16.20
2022-09-25T14:20:06.631Z,16.10
2022-09-25T14:23:30.650Z,16.10
2022-09-25T14:26:32.425Z,16.10
2022-09-25T14:29:40.967Z,16.10
2022-09-25T14:33:00.776Z,16.00
2022-09-25T14:36:35.004Z,16.00
2022-09-25T14:40:18.118Z,16.00
2022-09-25T14:44:14.492Z,15.90
2022-09-25T14:47:17.958Z,16.00
2022-09-25T14:50:23.273Z,16.10
2022-09-25T14:53:33.707Z,16.10
2022-09-25T14:56:37.474Z,16.20
2022-09-25T14:59:45.914Z,16.20
2022-09-25T15:02:49.636Z,16.20
2022-09-25T15:05:51.545Z,16.30
2022-09-25T15:08:53.541Z,16.30
2022-09-25T15:11:55.886Z,16.30
2022-09-25T15:15:12.518Z,16.40
2022-09-25T15:18:14.570Z,16.40
2022-09-25T15:21:34.309Z,16.40
2022-09-25T15:24:37.695Z,16.50
2022-09-25T15:27:44.043Z,16.50
2022-09-25T15:30:54.871Z,16.60
2022-09-25T15:34:13.867Z,16.60
2022-09-25T15:37:29.330Z,16.60
2022-09-25T15:40:31.919Z,16.60
2022-09-25T15:43:34.489Z,16.70
2022-09-25T15:46:40.424Z,16.70
2022-09-25T15:49:43.638Z,16.70
2022-09-25T15:52:51.779Z,16.70
2022-09-25T15:56:08.502Z,16.70
2022-09-25T16:03:46.408Z,16.80
2022-09-25T16:06:54.738Z,16.80
2022-09-25T16:10:17.833Z,16.80
2022-09-25T16:13:25.792Z,16.80
2022-09-25T16:16:32.071Z,16.80
2022-09-25T16:19:34.318Z,16.80
2022-09-25T16:22:45.601Z,16.80
2022-09-25T16:25:47.600Z,16.80
2022-09-25T16:29:05.010Z,16.70
2022-09-25T16:32:13.941Z,16.70
2022-09-25T16:35:50.602Z,16.70
2022-09-25T16:39:12.964Z,16.70
2022-09-25T16:42:39.490Z,16.70
2022-09-25T16:46:00.669Z,16.60
2022-09-25T16:49:04.795Z,16.60
2022-09-25T16:52:08.782Z,16.60
2022-09-25T16:55:29.458Z,16.60
2022-09-25T16:58:31.598Z,16.50
2022-09-25T17:01:33.618Z,16.50
2022-09-25T17:04:38.690Z,16.50
2022-09-25T17:07:40.622Z,16.40
2022-09-25T17:10:42.704Z,16.40
2022-09-25T17:13:45.534Z,16.30
2022-09-25T17:16:47.295Z,16.30
2022-09-25T17:19:50.561Z,16.20
2022-09-25T17:22:53.980Z,16.10
2022-09-25T17:26:00.913Z,16.10
2022-09-25T17:29:02.675Z,16.00
2022-09-25T17:32:04.404Z,16.00
2022-09-25T17:35:37.989Z,15.90
2022-09-25T17:38:40.079Z,15.70
2022-09-25T17:41:42.089Z,15.70
2022-09-25T17:44:44.150Z,15.70
2022-09-25T17:47:45.837Z,15.70
2022-09-25T17:50:47.860Z,15.70
2022-09-25T17:53:52.714Z,15.60
2022-09-25T17:56:54.907Z,15.60
2022-09-25T17:59:56.629Z,15.50
2022-09-25T18:02:58.433Z,15.50
2022-09-25T18:06:00.390Z,15.40
2022-09-25T18:09:02.347Z,15.40
2022-09-25T18:12:04.841Z,15.40
2022-09-25T18:15:07.312Z,15.40
2022-09-25T18:18:09.843Z,15.30
2022-09-25T18:21:30.274Z,15.30
2022-09-25T18:24:32.069Z,15.20
2022-09-25T18:27:34.530Z,15.10
2022-09-25T18:30:38.138Z,15.20
2022-09-25T18:33:43.106Z,15.10
2022-09-25T18:36:49.182Z,15.10
2022-09-25T18:39:51.171Z,15.00
2022-09-25T18:42:53.264Z,15.00
2022-09-25T18:45:55.576Z,15.00
2022-09-25T18:48:59.447Z,14.90
2022-09-25T18:52:01.652Z,14.70
2022-09-25T18:55:04.821Z,14.70
2022-09-25T18:58:06.733Z,14.70
2022-09-25T19:01:08.581Z,14.70
2022-09-25T19:04:16.004Z,14.60
2022-09-25T19:07:19.566Z,14.60
2022-09-25T19:10:22.119Z,14.60
2022-09-25T19:13:25.143Z,14.50
2022-09-25T19:16:26.975Z,14.50
2022-09-25T19:19:32.521Z,14.50
2022-09-25T19:22:35.402Z,14.40
2022-09-25T19:25:38.101Z,14.40
2022-09-25T19:28:41.161Z,14.40
2022-09-25T19:31:42.994Z,14.30
2022-09-25T19:34:45.176Z,14.30
2022-09-25T19:37:47.139Z,14.20
2022-09-25T19:40:49.123Z,14.20
2022-09-25T19:43:51.948Z,14.20
2022-09-25T19:46:53.731Z,14.20
2022-09-25T19:49:55.666Z,14.30
2022-09-25T19:52:57.666Z,14.30
2022-09-25T19:55:59.615Z,14.30
2022-09-25T19:59:06.999Z,14.20
2022-09-25T20:02:10.229Z,14.30
2022-09-25T20:05:12.358Z,14.30
2022-09-25T20:08:14.541Z,14.20
2022-09-25T20:11:19.325Z,14.30
2022-09-25T20:14:25.502Z,14.20
2022-09-25T20:17:27.425Z,14.20
2022-09-25T20:20:29.779Z,14.10
2022-09-25T20:23:31.559Z,14.10
2022-09-25T20:26:34.347Z,14.10
2022-09-25T20:29:36.464Z,14.10
2022-09-25T20:32:38.752Z,14.10
2022-09-25T20:35:41.432Z,14.10
2022-09-25T20:38:45.191Z,14.00
2022-09-25T20:41:46.907Z,14.00
2022-09-25T20:44:48.881Z,14.00
2022-09-25T20:47:51.099Z,14.00
2022-09-25T20:50:54.769Z,13.90
2022-09-25T20:54:02.567Z,13.90
2022-09-25T20:57:04.342Z,13.90
2022-09-25T21:00:06.675Z,13.80
2022-09-25T21:03:08.666Z,13.80
2022-09-25T21:06:16.267Z,13.80
2022-09-25T21:09:23.076Z,13.80
2022-09-25T21:12:24.928Z,13.80
2022-09-25T21:15:28.636Z,13.80
2022-09-25T21:18:31.205Z,13.80
2022-09-25T21:21:33.890Z,13.80
2022-09-25T21:24:36.264Z,13.70
2022-09-25T21:27:41.458Z,13.70
2022-09-25T21:30:43.177Z,13.70
2022-09-25T21:33:45.842Z,13.70
2022-09-25T21:36:48.738Z,13.60
2022-09-25T21:39:50.435Z,13.60
2022-09-25T21:42:52.124Z,13.50
2022-09-25T21:45:53.881Z,13.60
2022-09-25T21:48:58.801Z,13.50
2022-09-25T21:52:01.939Z,13.40
2022-09-25T21:55:08.427Z,13.40
2022-09-25T21:58:10.228Z,13.40
2022-09-25T22:01:16.173Z,13.40
2022-09-25T22:04:17.890Z,13.30
2022-09-25T22:07:19.582Z,13.30
2022-09-25T22:10:21.347Z,13.40
2022-09-25T22:13:23.732Z,13.40
2022-09-25T22:16:43.275Z,13.30
2022-09-25T22:19:45.283Z,13.20
2022-09-25T22:22:49.094Z,13.20
2022-09-25T22:25:52.229Z,13.20
2022-09-25T22:28:54.182Z,13.20
2022-09-25T22:35:11.686Z,13.10
2022-09-25T22:45:21.819Z,13.00
2022-09-25T22:48:23.548Z,12.90
2022-09-25T22:51:26.256Z,13.00
2022-09-25T22:54:28.288Z,12.90
2022-09-25T22:57:30.003Z,12.90
2022-09-25T23:00:31.789Z,12.80
2022-09-25T23:03:33.527Z,12.80
2022-09-25T23:06:36.227Z,12.80
2022-09-25T23:09:38.400Z,12.80
2022-09-25T23:12:40.162Z,12.70
2022-09-25T23:15:41.850Z,12.70
2022-09-25T23:18:43.906Z,12.70
2022-09-25T23:21:45.909Z,12.70
2022-09-25T23:24:47.853Z,12.70
2022-09-25T23:27:50.588Z,12.70
2022-09-25T23:30:52.301Z,12.70
2022-09-25T23:33:54.030Z,12.70
2022-09-25T23:36:56.164Z,12.60
2022-09-25T23:39:58.067Z,12.70
2022-09-25T23:43:01.912Z,12.70
2022-09-25T23:46:03.804Z,12.70
2022-09-25T23:49:05.847Z,12.70
2022-09-25T23:52:07.901Z,12.60
2022-09-25T23:55:21.746Z,12.60
2022-09-25T23:58:23.593Z,12.70
